sensor_id;sensor_type;location;lat;lon;timestamp;temperature;humidity
69082;DHT22;69029;51.986;5.760;2023-04-03T11:18:17;19.10;67.00
69082;DHT22;69029;51.986;5.760;2023-04-03T11:21:11;19.30;70.20
69082;DHT22;69029;51.986;5.760;2023-04-03T11:23:40;19.80;70.00
69082;DHT22;69029;51.986;5.760;2023-04-03T11:26:17;20.10;61.10
69082;DHT22;69029;51.986;5.760;2023-04-03T11:28:44;20.50;66.20
69082;DHT22;69029;51.986;5.760;2023-04-03T11:36:30;21.80;61.70
69082;DHT22;69029;51.986;5.760;2023-04-03T11:39:02;22.20;62.80
69082;DHT22;69029;51.986;5.760;2023-04-03T11:41:33;22.80;64.20
69082;DHT22;69029;51.986;5.760;2023-04-03T11:44:00;23.20;61.00
69082;DHT22;69029;51.986;5.760;2023-04-03T11:46:51;23.50;57.00
69082;DHT22;69029;51.986;5.760;2023-04-03T11:52:54;23.70;55.00
69082;DHT22;69029;51.986;5.760;2023-04-03T12:19:27;26.40;49.00
69082;DHT22;69029;51.986;5.760;2023-04-03T12:24:36;27.20;52.60
69082;DHT22;69029;51.986;5.760;2023-04-03T12:27:24;27.40;53.20
69082;DHT22;69029;51.986;5.760;2023-04-03T12:30:06;27.70;51.10
69082;DHT22;69029;51.986;5.760;2023-04-03T12:32:46;27.90;51.50
69082;DHT22;69029;51.986;5.760;2023-04-03T12:35:36;28.00;48.80
69082;DHT22;69029;51.986;5.760;2023-04-03T12:46:24;28.90;43.90
69082;DHT22;69029;51.986;5.760;2023-04-03T12:48:55;29.00;45.20
69082;DHT22;69029;51.986;5.760;2023-04-03T12:54:02;29.20;43.10
69082;DHT22;69029;51.986;5.760;2023-04-03T12:56:29;29.20;43.20
69082;DHT22;69029;51.986;5.760;2023-04-03T13:01:40;29.40;41.40
69082;DHT22;69029;51.986;5.760;2023-04-03T13:04:05;29.40;43.90
69082;DHT22;69029;51.986;5.760;2023-04-03T13:06:38;29.60;43.40
69082;DHT22;69029;51.986;5.760;2023-04-03T13:09:14;29.50;36.40
69082;DHT22;69029;51.986;5.760;2023-04-03T13:11:43;29.60;41.80
69082;DHT22;69029;51.986;5.760;2023-04-03T13:14:21;29.70;38.30
69082;DHT22;69029;51.986;5.760;2023-04-03T13:16:55;29.80;38.80
69082;DHT22;69029;51.986;5.760;2023-04-03T13:19:24;29.90;37.60
69082;DHT22;69029;51.986;5.760;2023-04-03T13:22:04;30.20;38.50
69082;DHT22;69029;51.986;5.760;2023-04-03T13:24:33;30.40;37.90
69082;DHT22;69029;51.986;5.760;2023-04-03T13:26:59;30.40;36.90
69082;DHT22;69029;51.986;5.760;2023-04-03T13:29:29;30.60;37.60
69082;DHT22;69029;51.986;5.760;2023-04-03T13:31:56;30.80;34.50
69082;DHT22;69029;51.986;5.760;2023-04-03T13:34:24;31.00;36.30
69082;DHT22;69029;51.986;5.760;2023-04-03T13:41:49;31.00;33.50
69082;DHT22;69029;51.986;5.760;2023-04-03T13:46:58;31.40;33.70
69082;DHT22;69029;51.986;5.760;2023-04-03T13:51:58;31.60;31.50
69082;DHT22;69029;51.986;5.760;2023-04-03T13:54:32;31.60;30.50
69082;DHT22;69029;51.986;5.760;2023-04-03T13:56:59;31.60;31.30
69082;DHT22;69029;51.986;5.760;2023-04-03T13:59:35;31.60;31.30
69082;DHT22;69029;51.986;5.760;2023-04-03T14:07:12;31.60;30.10
69082;DHT22;69029;51.986;5.760;2023-04-03T14:09:38;31.80;30.60
69082;DHT22;69029;51.986;5.760;2023-04-03T14:12:15;31.90;30.00
69082;DHT22;69029;51.986;5.760;2023-04-03T14:14:41;31.90;30.00
69082;DHT22;69029;51.986;5.760;2023-04-03T14:17:16;31.80;29.60
69082;DHT22;69029;51.986;5.760;2023-04-03T14:19:42;31.60;29.50
69082;DHT22;69029;51.986;5.760;2023-04-03T14:22:20;31.60;29.50
69082;DHT22;69029;51.986;5.760;2023-04-03T14:24:48;31.40;29.20
69082;DHT22;69029;51.986;5.760;2023-04-03T14:27:38;31.20;28.30
69082;DHT22;69029;51.986;5.760;2023-04-03T14:30:08;31.40;29.00
69082;DHT22;69029;51.986;5.760;2023-04-03T14:32:35;31.50;27.70
69082;DHT22;69029;51.986;5.760;2023-04-03T14:35:01;31.20;28.70
69082;DHT22;69029;51.986;5.760;2023-04-03T14:37:29;30.90;27.10
69082;DHT22;69029;51.986;5.760;2023-04-03T14:39:56;30.60;28.40
69082;DHT22;69029;51.986;5.760;2023-04-03T14:42:29;30.40;24.30
69082;DHT22;69029;51.986;5.760;2023-04-03T14:44:56;30.40;28.30
69082;DHT22;69029;51.986;5.760;2023-04-03T14:47:28;30.40;28.50
69082;DHT22;69029;51.986;5.760;2023-04-03T14:49:54;30.40;27.60
69082;DHT22;69029;51.986;5.760;2023-04-03T14:52:26;30.30;27.60
69082;DHT22;69029;51.986;5.760;2023-04-03T14:54:54;30.20;28.10
69082;DHT22;69029;51.986;5.760;2023-04-03T14:57:22;30.20;28.00
69082;DHT22;69029;51.986;5.760;2023-04-03T14:59:49;30.40;28.00
69082;DHT22;69029;51.986;5.760;2023-04-03T15:02:28;30.50;27.50
69082;DHT22;69029;51.986;5.760;2023-04-03T15:04:55;30.30;26.50
69082;DHT22;69029;51.986;5.760;2023-04-03T15:07:21;30.00;27.10
69082;DHT22;69029;51.986;5.760;2023-04-03T15:09:47;29.80;26.60
69082;DHT22;69029;51.986;5.760;2023-04-03T15:12:13;29.70;27.90
69082;DHT22;69029;51.986;5.760;2023-04-03T15:14:38;29.70;28.00
69082;DHT22;69029;51.986;5.760;2023-04-03T15:17:04;29.20;27.00
69082;DHT22;69029;51.986;5.760;2023-04-03T15:19:36;28.70;27.10
69082;DHT22;69029;51.986;5.760;2023-04-03T15:22:03;28.40;27.80
69082;DHT22;69029;51.986;5.760;2023-04-03T15:24:28;28.30;28.50
69082;DHT22;69029;51.986;5.760;2023-04-03T15:26:55;28.50;28.40
69082;DHT22;69029;51.986;5.760;2023-04-03T15:29:21;28.20;27.90
69082;DHT22;69029;51.986;5.760;2023-04-03T15:31:47;27.80;27.60
69082;DHT22;69029;51.986;5.760;2023-04-03T15:34:15;27.70;28.80
69082;DHT22;69029;51.986;5.760;2023-04-03T15:36:41;27.80;27.60
69082;DHT22;69029;51.986;5.760;2023-04-03T15:39:07;27.60;29.70
69082;DHT22;69029;51.986;5.760;2023-04-03T15:41:32;27.40;28.80
69082;DHT22;69029;51.986;5.760;2023-04-03T15:43:58;27.20;28.40
69082;DHT22;69029;51.986;5.760;2023-04-03T15:46:23;27.10;28.70
69082;DHT22;69029;51.986;5.760;2023-04-03T15:48:49;27.10;28.80
69082;DHT22;69029;51.986;5.760;2023-04-03T15:51:15;26.50;28.70
69082;DHT22;69029;51.986;5.760;2023-04-03T15:53:40;26.10;28.50
69082;DHT22;69029;51.986;5.760;2023-04-03T15:56:07;25.70;29.30
69082;DHT22;69029;51.986;5.760;2023-04-03T15:58:34;25.30;30.30
69082;DHT22;69029;51.986;5.760;2023-04-03T16:01:01;24.90;30.60
69082;DHT22;69029;51.986;5.760;2023-04-03T16:03:27;24.50;30.10
69082;DHT22;69029;51.986;5.760;2023-04-03T16:05:53;24.10;32.60
69082;DHT22;69029;51.986;5.760;2023-04-03T16:08:19;23.70;31.80
69082;DHT22;69029;51.986;5.760;2023-04-03T16:10:45;23.40;32.60
69082;DHT22;69029;51.986;5.760;2023-04-03T16:13:12;23.10;32.00
69082;DHT22;69029;51.986;5.760;2023-04-03T16:15:39;22.90;32.30
69082;DHT22;69029;51.986;5.760;2023-04-03T16:18:05;22.50;32.50
69082;DHT22;69029;51.986;5.760;2023-04-03T16:20:32;21.70;33.40
69082;DHT22;69029;51.986;5.760;2023-04-03T16:22:59;21.50;33.90
69082;DHT22;69029;51.986;5.760;2023-04-03T16:25:26;21.40;35.50
69082;DHT22;69029;51.986;5.760;2023-04-03T16:27:53;21.00;35.90
69082;DHT22;69029;51.986;5.760;2023-04-03T16:30:19;20.90;35.00
69082;DHT22;69029;51.986;5.760;2023-04-03T16:32:44;20.60;35.90
69082;DHT22;69029;51.986;5.760;2023-04-03T16:35:10;20.40;37.70
69082;DHT22;69029;51.986;5.760;2023-04-03T16:37:37;20.10;36.70
69082;DHT22;69029;51.986;5.760;2023-04-03T16:40:04;19.90;37.80
69082;DHT22;69029;51.986;5.760;2023-04-03T16:42:30;19.50;37.30
69082;DHT22;69029;51.986;5.760;2023-04-03T16:44:56;19.40;36.80
69082;DHT22;69029;51.986;5.760;2023-04-03T16:47:22;19.20;37.30
69082;DHT22;69029;51.986;5.760;2023-04-03T16:49:55;19.00;38.00
69082;DHT22;69029;51.986;5.760;2023-04-03T16:52:22;18.70;40.20
69082;DHT22;69029;51.986;5.760;2023-04-03T16:54:47;18.50;39.40
69082;DHT22;69029;51.986;5.760;2023-04-03T16:57:13;18.20;39.40
69082;DHT22;69029;51.986;5.760;2023-04-03T16:59:38;17.90;40.30
69082;DHT22;69029;51.986;5.760;2023-04-03T17:02:04;17.70;41.60
69082;DHT22;69029;51.986;5.760;2023-04-03T17:04:30;17.40;40.40
69082;DHT22;69029;51.986;5.760;2023-04-03T17:06:55;17.30;43.10
69082;DHT22;69029;51.986;5.760;2023-04-03T17:09:21;17.10;42.10
69082;DHT22;69029;51.986;5.760;2023-04-03T17:11:48;17.00;41.20
69082;DHT22;69029;51.986;5.760;2023-04-03T17:14:13;16.70;41.80
69082;DHT22;69029;51.986;5.760;2023-04-03T17:16:39;16.40;44.60
69082;DHT22;69029;51.986;5.760;2023-04-03T17:19:05;16.20;44.50
69082;DHT22;69029;51.986;5.760;2023-04-03T17:21:32;16.00;43.10
69082;DHT22;69029;51.986;5.760;2023-04-03T17:24:04;15.80;44.20
69082;DHT22;69029;51.986;5.760;2023-04-03T17:26:32;15.60;45.40
69082;DHT22;69029;51.986;5.760;2023-04-03T17:28:58;15.40;45.10
69082;DHT22;69029;51.986;5.760;2023-04-03T17:31:25;15.10;44.60
69082;DHT22;69029;51.986;5.760;2023-04-03T17:33:51;15.00;46.40
69082;DHT22;69029;51.986;5.760;2023-04-03T17:36:17;14.60;43.20
69082;DHT22;69029;51.986;5.760;2023-04-03T17:38:42;14.50;46.70
69082;DHT22;69029;51.986;5.760;2023-04-03T17:41:08;14.30;47.30
69082;DHT22;69029;51.986;5.760;2023-04-03T17:43:34;14.20;46.20
69082;DHT22;69029;51.986;5.760;2023-04-03T17:46:09;14.10;47.30
69082;DHT22;69029;51.986;5.760;2023-04-03T17:48:36;14.00;47.00
69082;DHT22;69029;51.986;5.760;2023-04-03T17:51:07;13.80;45.90
69082;DHT22;69029;51.986;5.760;2023-04-03T17:53:33;13.60;47.90
69082;DHT22;69029;51.986;5.760;2023-04-03T17:56:07;13.60;48.70
69082;DHT22;69029;51.986;5.760;2023-04-03T17:58:34;13.40;48.60
69082;DHT22;69029;51.986;5.760;2023-04-03T18:01:11;13.20;49.10
69082;DHT22;69029;51.986;5.760;2023-04-03T18:03:37;13.10;47.80
69082;DHT22;69029;51.986;5.760;2023-04-03T18:06:08;13.00;47.90
69082;DHT22;69029;51.986;5.760;2023-04-03T18:08:37;12.90;48.40
69082;DHT22;69029;51.986;5.760;2023-04-03T18:11:04;12.70;49.30
69082;DHT22;69029;51.986;5.760;2023-04-03T18:13:30;12.60;50.30
69082;DHT22;69029;51.986;5.760;2023-04-03T18:15:56;12.40;49.10
69082;DHT22;69029;51.986;5.760;2023-04-03T18:18:21;12.40;51.10
69082;DHT22;69029;51.986;5.760;2023-04-03T18:20:47;12.30;50.10
69082;DHT22;69029;51.986;5.760;2023-04-03T18:23:13;12.10;51.80
69082;DHT22;69029;51.986;5.760;2023-04-03T18:25:39;12.00;50.40
69082;DHT22;69029;51.986;5.760;2023-04-03T18:28:05;11.80;51.90
69082;DHT22;69029;51.986;5.760;2023-04-03T18:30:32;11.70;51.80
69082;DHT22;69029;51.986;5.760;2023-04-03T18:32:58;11.60;52.40
69082;DHT22;69029;51.986;5.760;2023-04-03T18:35:24;11.50;52.60
69082;DHT22;69029;51.986;5.760;2023-04-03T18:37:50;11.40;52.70
69082;DHT22;69029;51.986;5.760;2023-04-03T18:40:17;11.30;53.00
69082;DHT22;69029;51.986;5.760;2023-04-03T18:42:43;11.20;53.30
69082;DHT22;69029;51.986;5.760;2023-04-03T18:45:10;11.10;53.80
69082;DHT22;69029;51.986;5.760;2023-04-03T18:47:37;11.00;53.60
69082;DHT22;69029;51.986;5.760;2023-04-03T18:50:04;10.90;53.10
69082;DHT22;69029;51.986;5.760;2023-04-03T18:52:31;10.80;54.60
69082;DHT22;69029;51.986;5.760;2023-04-03T18:54:57;10.70;54.70
69082;DHT22;69029;51.986;5.760;2023-04-03T18:57:23;10.60;54.90
69082;DHT22;69029;51.986;5.760;2023-04-03T18:59:51;10.50;55.70
69082;DHT22;69029;51.986;5.760;2023-04-03T19:02:16;10.40;55.80
69082;DHT22;69029;51.986;5.760;2023-04-03T19:04:43;10.30;55.80
69082;DHT22;69029;51.986;5.760;2023-04-03T19:07:09;10.20;55.80
69082;DHT22;69029;51.986;5.760;2023-04-03T19:09:35;10.10;56.50
69082;DHT22;69029;51.986;5.760;2023-04-03T22:21:41;4.50;99.90
69082;DHT22;69029;51.986;5.760;2023-04-03T22:24:07;4.50;99.90
69082;DHT22;69029;51.986;5.760;2023-04-03T22:26:33;4.30;70.10
69082;DHT22;69029;51.986;5.760;2023-04-03T22:28:59;4.20;69.00
69082;DHT22;69029;51.986;5.760;2023-04-03T22:31:26;4.10;69.80
69082;DHT22;69029;51.986;5.760;2023-04-03T22:33:52;4.10;69.80
69082;DHT22;69029;51.986;5.760;2023-04-03T22:36:19;4.00;69.50
69082;DHT22;69029;51.986;5.760;2023-04-03T22:38:44;4.00;70.10
69082;DHT22;69029;51.986;5.760;2023-04-03T22:41:11;3.90;70.00
69082;DHT22;69029;51.986;5.760;2023-04-03T22:43:37;3.90;70.20
69082;DHT22;69029;51.986;5.760;2023-04-03T22:46:05;3.80;70.40
69082;DHT22;69029;51.986;5.760;2023-04-03T22:48:33;3.80;70.40
69082;DHT22;69029;51.986;5.760;2023-04-03T22:50:58;3.70;70.50
69082;DHT22;69029;51.986;5.760;2023-04-03T22:53:25;3.60;71.10
69082;DHT22;69029;51.986;5.760;2023-04-03T22:56:01;3.60;71.10
69082;DHT22;69029;51.986;5.760;2023-04-03T22:58:28;3.60;71.00
69082;DHT22;69029;51.986;5.760;2023-04-03T23:00:55;3.50;72.10
69082;DHT22;69029;51.986;5.760;2023-04-03T23:03:22;3.40;71.50
69082;DHT22;69029;51.986;5.760;2023-04-03T23:05:49;3.30;72.50
69082;DHT22;69029;51.986;5.760;2023-04-03T23:08:18;3.30;71.50
69082;DHT22;69029;51.986;5.760;2023-04-03T23:10:44;3.20;72.90
69082;DHT22;69029;51.986;5.760;2023-04-03T23:13:10;3.10;72.50
69082;DHT22;69029;51.986;5.760;2023-04-03T23:15:36;3.10;73.00
69082;DHT22;69029;51.986;5.760;2023-04-03T23:18:03;3.00;73.40
69082;DHT22;69029;51.986;5.760;2023-04-03T23:20:28;3.00;73.40
69082;DHT22;69029;51.986;5.760;2023-04-03T23:22:54;2.90;73.40
69082;DHT22;69029;51.986;5.760;2023-04-03T23:27:52;2.90;73.20
69082;DHT22;69029;51.986;5.760;2023-04-03T23:30:19;2.90;74.00
69082;DHT22;69029;51.986;5.760;2023-04-03T23:32:45;2.90;74.20
69082;DHT22;69029;51.986;5.760;2023-04-03T23:35:11;2.80;74.50
69082;DHT22;69029;51.986;5.760;2023-04-03T23:37:36;2.70;75.50
69082;DHT22;69029;51.986;5.760;2023-04-03T23:40:02;2.70;75.50
69082;DHT22;69029;51.986;5.760;2023-04-03T23:42:28;2.70;75.80
69082;DHT22;69029;51.986;5.760;2023-04-03T23:44:53;2.60;76.50
69082;DHT22;69029;51.986;5.760;2023-04-03T23:47:19;2.60;76.60
69082;DHT22;69029;51.986;5.760;2023-04-03T23:49:45;2.50;77.30
69082;DHT22;69029;51.986;5.760;2023-04-03T23:52:10;2.50;76.80
69082;DHT22;69029;51.986;5.760;2023-04-03T23:54:36;2.50;76.00
69082;DHT22;69029;51.986;5.760;2023-04-03T23:57:02;2.50;75.70
69082;DHT22;69029;51.986;5.760;2023-04-03T23:59:28;2.50;76.20
